ADDS TAF Board (Experimental) INFO Settings
IDs: Format: Expanded Condensed

KPHL - Philadelphia Intl, PA, US

Issued at 2325 UTC 24 Sep 2016
Updated at 0200 UTC 25 Sep 2016
Time0154Z 25/02Z 25/03Z 25/04Z 25/05Z 25/06Z 25/07Z 25/08Z 25/09Z 25/10Z 25/11Z 25/12Z 25/13Z 25/14Z
Type OBS PRVL PRVL PRVL PRVL PRVL PRVL PRVL PRVL PRVL PRVL PRVL PRVL PRVL
VIS 10 >6 >6 >6 >6 >6 >6 >6 >6 >6 >6 >6 >6 >6
CIG -- -- -- -- -- -- -- -- -- -- -- -- -- --
Cover CLR SKC SKC SKC SKC SKC SKC SKC SKC SKC SKC FEW FEW FEW
FltCat VFR VFR VFR VFR VFR VFR VFR VFR VFR VFR VFR VFR VFR VFR
WX -- -- -- -- -- -- -- -- -- -- -- -- -- --
WDir 10 VRB VRB VRB VRB 360 360 360 360 360 360 20 20 20
WSpd 3 3 3 3 3 5 5 5 5 5 5 7 7 7
WGst -- -- -- -- -- -- -- -- -- -- -- -- -- --
R08/26
XWnd 3 VRB VRB VRB VRB 5 5 5 5 5 5 6 6 6
HWnd 1 VRB VRB VRB VRB 1 1 1 1 1 1 4 4 4
R09/27
XWnd 3 VRB VRB VRB VRB 5 5 5 5 5 5 6 6 6
HWnd 1 VRB VRB VRB VRB 1 1 1 1 1 1 4 4 4
R17/35
XWnd 2 VRB VRB VRB VRB 2 2 2 2 2 2 5 5 5
HWnd -3 VRB VRB VRB VRB -5 -5 -5 -5 -5 -5 -5 -5 -5

Raw TAF
KPHL 242325Z 2500/2606 VRB03KT P6SM SKC
  FM250600 36005KT P6SM SKC
  FM251200 02007KT P6SM FEW050
  FM252100 32006KT P6SM FEW050


Raw METAR
KPHL 250154Z 01003KT 10SM CLR 18/10 A3015 RMK AO2 SLP209 T01780100
KPHL 250054Z 21005KT 10SM FEW060 19/13 A3013 RMK AO2 SLP202 T01890133
KPHL 242354Z 19006KT 10SM SCT060 19/13 A3011 RMK AO2 SLP197 T01940128 10222 20189 53011
KPHL 242254Z 15004KT 10SM FEW040 FEW065 SCT250 20/12 A3010 RMK AO2 SLP191 T02000122

METAR Board
Radar Display
Forecast Discussion

TAF Board Legend

Potential Impact
Threat None Slight Moderate High
Visibility (sm) ≥5.1 5.1>X≥3 3>X≥1 <1
Ceiling (100 ft) ≥30.1 30.1>X≥10 10>X≥5 <5
Wind Speed (kt) <10 10≤X<20 20≤X<30 ≥30
Wind Gust (kt) <15 15≤X<25 25≤X<35 ≥35
Weather No Wx Reported VCTS,-TS,-FZRA,SN TS,FZRA +TS,+FZRA,+SN